Weather at bontang selatan aerodrome [CLOSED]

Public forecast

Using degrees Celsius for public forecast. Weather courtesy of forecast.io.

Closest aviation weather report (METAR) to bontang selatan aerodrome

Closest report is Sultan Aji Muhammad Sulaiman Sepinggan International Airport, 85.7 nm (158.8 km) SSW.

2024/07/24 22:00 (retrieved 37 minutes ago)

WALL 242200Z 21003KT 3000 TSRA FEW017CB SCT018 26/26 Q1008 RMK CB TO SE AND S

Closest aviation forecast (TAF) to bontang selatan aerodrome

Closest forecast is Aji Pangeran Tumenggung Pranoto International Airport, 28.2 nm (52.1 km) SSW.

2024/07/24 18:00 (retrieved 5 hours ago)

TAF WALL 241700Z 2418/2524 23005KT 9000 SCT019 TAF WALS 241700Z 2418/2506 24003KT 4000 BR FEW015 SCT017 BECMG 2500/2502 9999 NSW SCT019